sensor_id;sensor_type;location;lat;lon;timestamp;P1;durP1;ratioP1;P2;durP2;ratioP2
80910;SDS011;70359;51.420;7.032;2024-03-23T00:55:08;6.5;;;2;;
80910;SDS011;70359;51.420;7.032;2024-03-23T00:57:32;6.5;;;2;;
80910;SDS011;70359;51.420;7.032;2024-03-23T00:59:57;4.5;;;2.2;;
80910;SDS011;70359;51.420;7.032;2024-03-23T01:02:23;4.5;;;2.2;;
80910;SDS011;70359;51.420;7.032;2024-03-23T01:04:48;4.5;;;2.2;;
80910;SDS011;70359;51.420;7.032;2024-03-23T01:07:13;3.1;;;1.7;;
80910;SDS011;70359;51.420;7.032;2024-03-23T01:09:38;3.1;;;1.7;;
80910;SDS011;70359;51.420;7.032;2024-03-23T01:12:03;3.6;;;1.9;;
80910;SDS011;70359;51.420;7.032;2024-03-23T01:14:28;3.6;;;1.9;;
80910;SDS011;70359;51.420;7.032;2024-03-23T01:16:53;3.3;;;2.2;;
80910;SDS011;70359;51.420;7.032;2024-03-23T01:19:18;3.3;;;2.2;;
80910;SDS011;70359;51.420;7.032;2024-03-23T01:21:46;3.1;;;1.9;;
80910;SDS011;70359;51.420;7.032;2024-03-23T01:24:08;3.1;;;1.9;;
80910;SDS011;70359;51.420;7.032;2024-03-23T01:26:33;3.2;;;1.7;;
80910;SDS011;70359;51.420;7.032;2024-03-23T01:28:58;3.2;;;1.7;;
80910;SDS011;70359;51.420;7.032;2024-03-23T01:31:23;2.7;;;1.6;;
80910;SDS011;70359;51.420;7.032;2024-03-23T01:33:48;2.7;;;1.6;;
80910;SDS011;70359;51.420;7.032;2024-03-23T01:36:13;2.3;;;1.8;;
80910;SDS011;70359;51.420;7.032;2024-03-23T01:38:38;2.3;;;1.8;;
80910;SDS011;70359;51.420;7.032;2024-03-23T01:41:03;1.4;;;1.3;;
80910;SDS011;70359;51.420;7.032;2024-03-23T01:43:32;1.4;;;1.3;;
80910;SDS011;70359;51.420;7.032;2024-03-23T01:45:53;9;;;1.7;;
80910;SDS011;70359;51.420;7.032;2024-03-23T01:48:18;9;;;1.7;;
80910;SDS011;70359;51.420;7.032;2024-03-23T01:50:43;3.1;;;1.8;;
80910;SDS011;70359;51.420;7.032;2024-03-23T01:53:08;3.1;;;1.8;;
80910;SDS011;70359;51.420;7.032;2024-03-23T01:55:33;1.6;;;1.1;;
80910;SDS011;70359;51.420;7.032;2024-03-23T01:58:00;1.6;;;1.1;;
80910;SDS011;70359;51.420;7.032;2024-03-23T02:00:23;1.6;;;1.3;;
80910;SDS011;70359;51.420;7.032;2024-03-23T02:02:48;1.6;;;1.3;;
80910;SDS011;70359;51.420;7.032;2024-03-23T02:05:13;3.1;;;1.1;;
80910;SDS011;70359;51.420;7.032;2024-03-23T02:07:38;3.1;;;1.1;;
80910;SDS011;70359;51.420;7.032;2024-03-23T02:10:03;7.1;;;2.2;;
80910;SDS011;70359;51.420;7.032;2024-03-23T02:12:32;7.1;;;2.2;;
80910;SDS011;70359;51.420;7.032;2024-03-23T02:14:53;7.1;;;2.2;;
80910;SDS011;70359;51.420;7.032;2024-03-23T02:17:22;1.8;;;1;;
80910;SDS011;70359;51.420;7.032;2024-03-23T02:19:47;1.8;;;1;;
80910;SDS011;70359;51.420;7.032;2024-03-23T02:22:08;4;;;1.5;;
80910;SDS011;70359;51.420;7.032;2024-03-23T02:24:33;4;;;1.5;;
80910;SDS011;70359;51.420;7.032;2024-03-23T02:26:58;8.7;;;1.5;;
80910;SDS011;70359;51.420;7.032;2024-03-23T02:29:23;8.7;;;1.5;;
80910;SDS011;70359;51.420;7.032;2024-03-23T02:31:48;1.3;;;1;;
80910;SDS011;70359;51.420;7.032;2024-03-23T02:34:13;1.3;;;1;;
80910;SDS011;70359;51.420;7.032;2024-03-23T02:36:38;4.9;;;1.6;;
80910;SDS011;70359;51.420;7.032;2024-03-23T02:39:03;4.9;;;1.6;;
80910;SDS011;70359;51.420;7.032;2024-03-23T02:41:28;2.2;;;1.3;;
80910;SDS011;70359;51.420;7.032;2024-03-23T02:43:53;2.2;;;1.3;;
80910;SDS011;70359;51.420;7.032;2024-03-23T02:46:18;2.4;;;1.7;;
80910;SDS011;70359;51.420;7.032;2024-03-23T02:48:43;2.4;;;1.7;;
80910;SDS011;70359;51.420;7.032;2024-03-23T02:51:08;5;;;2;;
80910;SDS011;70359;51.420;7.032;2024-03-23T02:53:33;5;;;2;;
80910;SDS011;70359;51.420;7.032;2024-03-23T02:55:58;2.9;;;1.5;;
80910;SDS011;70359;51.420;7.032;2024-03-23T02:58:23;2.9;;;1.5;;
80910;SDS011;70359;51.420;7.032;2024-03-23T03:00:52;2.7;;;1.4;;
80910;SDS011;70359;51.420;7.032;2024-03-23T03:03:13;2.7;;;1.4;;
80910;SDS011;70359;51.420;7.032;2024-03-23T03:05:38;1.9;;;1.1;;
80910;SDS011;70359;51.420;7.032;2024-03-23T03:08:07;1.9;;;1.1;;
80910;SDS011;70359;51.420;7.032;2024-03-23T03:10:28;3.9;;;1.5;;
80910;SDS011;70359;51.420;7.032;2024-03-23T03:12:57;3.9;;;1.5;;
80910;SDS011;70359;51.420;7.032;2024-03-23T03:15:22;4.6;;;1.3;;
80910;SDS011;70359;51.420;7.032;2024-03-23T03:17:47;4.6;;;1.3;;
80910;SDS011;70359;51.420;7.032;2024-03-23T03:20:08;1.4;;;1.3;;
80910;SDS011;70359;51.420;7.032;2024-03-23T03:22:33;1.4;;;1.3;;
80910;SDS011;70359;51.420;7.032;2024-03-23T03:24:58;1.9;;;1.5;;
80910;SDS011;70359;51.420;7.032;2024-03-23T03:27:23;1.9;;;1.5;;
80910;SDS011;70359;51.420;7.032;2024-03-23T03:29:48;1.9;;;1.5;;
80910;SDS011;70359;51.420;7.032;2024-03-23T03:32:13;2.1;;;1.3;;
80910;SDS011;70359;51.420;7.032;2024-03-23T03:34:38;2.1;;;1.3;;
80910;SDS011;70359;51.420;7.032;2024-03-23T03:37:07;2.3;;;1.6;;
80910;SDS011;70359;51.420;7.032;2024-03-23T03:39:32;2.3;;;1.6;;
80910;SDS011;70359;51.420;7.032;2024-03-23T03:41:57;1.2;;;1.1;;
80910;SDS011;70359;51.420;7.032;2024-03-23T03:44:18;1.2;;;1.1;;
80910;SDS011;70359;51.420;7.032;2024-03-23T03:46:43;1.4;;;1.1;;
80910;SDS011;70359;51.420;7.032;2024-03-23T03:49:08;1.4;;;1.1;;
80910;SDS011;70359;51.420;7.032;2024-03-23T03:51:33;3.1;;;1.5;;
80910;SDS011;70359;51.420;7.032;2024-03-23T03:53:58;3.1;;;1.5;;
80910;SDS011;70359;51.420;7.032;2024-03-23T03:56:23;1.9;;;1.4;;
80910;SDS011;70359;51.420;7.032;2024-03-23T03:58:52;1.9;;;1.4;;
80910;SDS011;70359;51.420;7.032;2024-03-23T04:01:17;1.3;;;0.9;;
80910;SDS011;70359;51.420;7.032;2024-03-23T04:03:42;1.3;;;0.9;;
80910;SDS011;70359;51.420;7.032;2024-03-23T04:06:03;3.1;;;1.5;;
80910;SDS011;70359;51.420;7.032;2024-03-23T04:08:28;3.1;;;1.5;;
80910;SDS011;70359;51.420;7.032;2024-03-23T04:10:53;6.3;;;1.7;;
80910;SDS011;70359;51.420;7.032;2024-03-23T04:13:18;6.3;;;1.7;;
80910;SDS011;70359;51.420;7.032;2024-03-23T04:15:47;3.6;;;1.8;;
80910;SDS011;70359;51.420;7.032;2024-03-23T04:18:08;3.6;;;1.8;;
80910;SDS011;70359;51.420;7.032;2024-03-23T04:20:37;3.2;;;1.8;;
80910;SDS011;70359;51.420;7.032;2024-03-23T04:22:58;3.2;;;1.8;;
80910;SDS011;70359;51.420;7.032;2024-03-23T04:25:23;3.3;;;1.8;;
80910;SDS011;70359;51.420;7.032;2024-03-23T04:27:52;3.3;;;1.8;;
80910;SDS011;70359;51.420;7.032;2024-03-23T04:30:13;4.6;;;1.9;;
80910;SDS011;70359;51.420;7.032;2024-03-23T04:32:38;4.6;;;1.9;;
80910;SDS011;70359;51.420;7.032;2024-03-23T04:35:03;2.7;;;1.7;;
80910;SDS011;70359;51.420;7.032;2024-03-23T04:37:32;2.7;;;1.7;;
80910;SDS011;70359;51.420;7.032;2024-03-23T04:39:53;2.7;;;1.7;;
80910;SDS011;70359;51.420;7.032;2024-03-23T04:42:18;9.9;;;1.9;;
80910;SDS011;70359;51.420;7.032;2024-03-23T04:44:43;9.9;;;1.9;;
80910;SDS011;70359;51.420;7.032;2024-03-23T04:47:08;1.8;;;1.4;;
80910;SDS011;70359;51.420;7.032;2024-03-23T04:49:33;1.8;;;1.4;;
80910;SDS011;70359;51.420;7.032;2024-03-23T04:51:58;2.1;;;1.3;;
80910;SDS011;70359;51.420;7.032;2024-03-23T04:54:23;2.1;;;1.3;;
80910;SDS011;70359;51.420;7.032;2024-03-23T04:56:52;3.9;;;1.7;;
80910;SDS011;70359;51.420;7.032;2024-03-23T04:59:17;3.9;;;1.7;;
80910;SDS011;70359;51.420;7.032;2024-03-23T05:01:38;1.7;;;1.5;;
80910;SDS011;70359;51.420;7.032;2024-03-23T05:04:03;1.7;;;1.5;;
80910;SDS011;70359;51.420;7.032;2024-03-23T05:06:28;3.2;;;2;;
80910;SDS011;70359;51.420;7.032;2024-03-23T05:08:53;3.2;;;2;;
80910;SDS011;70359;51.420;7.032;2024-03-23T05:11:18;5.7;;;1.9;;
80910;SDS011;70359;51.420;7.032;2024-03-23T05:13:43;5.7;;;1.9;;
80910;SDS011;70359;51.420;7.032;2024-03-23T05:16:12;2.4;;;1.9;;
80910;SDS011;70359;51.420;7.032;2024-03-23T05:18:33;2.4;;;1.9;;
80910;SDS011;70359;51.420;7.032;2024-03-23T05:20:59;5.7;;;2;;
80910;SDS011;70359;51.420;7.032;2024-03-23T05:23:23;5.7;;;2;;
80910;SDS011;70359;51.420;7.032;2024-03-23T05:25:48;2;;;1.8;;
80910;SDS011;70359;51.420;7.032;2024-03-23T05:28:17;2;;;1.8;;
80910;SDS011;70359;51.420;7.032;2024-03-23T05:30:38;3.5;;;2.1;;
80910;SDS011;70359;51.420;7.032;2024-03-23T05:33:03;3.5;;;2.1;;
80910;SDS011;70359;51.420;7.032;2024-03-23T05:35:32;8.1;;;2.4;;
80910;SDS011;70359;51.420;7.032;2024-03-23T05:37:53;8.1;;;2.4;;
80910;SDS011;70359;51.420;7.032;2024-03-23T05:40:18;3.3;;;2.2;;
80910;SDS011;70359;51.420;7.032;2024-03-23T05:42:43;3.3;;;2.2;;
80910;SDS011;70359;51.420;7.032;2024-03-23T05:45:08;2.8;;;2;;
80910;SDS011;70359;51.420;7.032;2024-03-23T05:47:37;2.8;;;2;;
80910;SDS011;70359;51.420;7.032;2024-03-23T05:50:03;2.8;;;1.9;;
80910;SDS011;70359;51.420;7.032;2024-03-23T05:52:27;2.8;;;1.9;;
80910;SDS011;70359;51.420;7.032;2024-03-23T05:54:52;2.8;;;1.9;;
80910;SDS011;70359;51.420;7.032;2024-03-23T05:57:17;4.2;;;2.5;;
80910;SDS011;70359;51.420;7.032;2024-03-23T05:59:38;4.2;;;2.5;;
80910;SDS011;70359;51.420;7.032;2024-03-23T06:02:07;3.5;;;2.6;;
80910;SDS011;70359;51.420;7.032;2024-03-23T06:04:28;3.5;;;2.6;;
80910;SDS011;70359;51.420;7.032;2024-03-23T06:06:53;12.4;;;2.9;;
80910;SDS011;70359;51.420;7.032;2024-03-23T06:09:18;12.4;;;2.9;;
80910;SDS011;70359;51.420;7.032;2024-03-23T06:11:43;3.6;;;3.3;;
80910;SDS011;70359;51.420;7.032;2024-03-23T06:14:12;3.6;;;3.3;;
80910;SDS011;70359;51.420;7.032;2024-03-23T06:16:33;7.5;;;4.4;;
80910;SDS011;70359;51.420;7.032;2024-03-23T06:18:58;7.5;;;4.4;;
80910;SDS011;70359;51.420;7.032;2024-03-23T06:21:23;4.6;;;4;;
80910;SDS011;70359;51.420;7.032;2024-03-23T06:23:51;4.6;;;4;;
80910;SDS011;70359;51.420;7.032;2024-03-23T06:26:13;6;;;4.4;;
80910;SDS011;70359;51.420;7.032;2024-03-23T06:28:38;6;;;4.4;;
80910;SDS011;70359;51.420;7.032;2024-03-23T06:31:08;5.8;;;3.5;;
80910;SDS011;70359;51.420;7.032;2024-03-23T06:33:28;5.8;;;3.5;;
80910;SDS011;70359;51.420;7.032;2024-03-23T06:35:53;5.6;;;4.2;;
80910;SDS011;70359;51.420;7.032;2024-03-23T06:38:18;5.6;;;4.2;;
80910;SDS011;70359;51.420;7.032;2024-03-23T06:40:43;6;;;4.7;;
80910;SDS011;70359;51.420;7.032;2024-03-23T06:43:12;6;;;4.7;;
80910;SDS011;70359;51.420;7.032;2024-03-23T06:45:33;15;;;5.1;;
80910;SDS011;70359;51.420;7.032;2024-03-23T06:47:58;15;;;5.1;;
80910;SDS011;70359;51.420;7.032;2024-03-23T06:50:29;7.4;;;4.9;;
80910;SDS011;70359;51.420;7.032;2024-03-23T06:52:53;7.4;;;4.9;;
80910;SDS011;70359;51.420;7.032;2024-03-23T06:55:17;7.6;;;5.6;;
80910;SDS011;70359;51.420;7.032;2024-03-23T06:57:38;7.6;;;5.6;;
80910;SDS011;70359;51.420;7.032;2024-03-23T07:00:04;6.9;;;5.7;;
80910;SDS011;70359;51.420;7.032;2024-03-23T07:02:28;6.9;;;5.7;;
80910;SDS011;70359;51.420;7.032;2024-03-23T07:04:53;6.9;;;5.7;;
80910;SDS011;70359;51.420;7.032;2024-03-23T07:07:18;7.9;;;6.1;;
80910;SDS011;70359;51.420;7.032;2024-03-23T07:09:43;7.9;;;6.1;;
80910;SDS011;70359;51.420;7.032;2024-03-23T07:12:08;8.3;;;6.3;;
80910;SDS011;70359;51.420;7.032;2024-03-23T07:14:33;8.3;;;6.3;;
80910;SDS011;70359;51.420;7.032;2024-03-23T07:16:58;8.3;;;6.1;;
80910;SDS011;70359;51.420;7.032;2024-03-23T07:19:23;8.3;;;6.1;;
80910;SDS011;70359;51.420;7.032;2024-03-23T07:21:52;6.1;;;5.5;;
80910;SDS011;70359;51.420;7.032;2024-03-23T07:24:13;6.1;;;5.5;;
80910;SDS011;70359;51.420;7.032;2024-03-23T07:26:38;7.5;;;5.3;;
80910;SDS011;70359;51.420;7.032;2024-03-23T07:29:07;7.5;;;5.3;;
80910;SDS011;70359;51.420;7.032;2024-03-23T07:31:28;10;;;5.3;;
80910;SDS011;70359;51.420;7.032;2024-03-23T07:33:53;10;;;5.3;;
80910;SDS011;70359;51.420;7.032;2024-03-23T07:36:18;5.4;;;4.5;;
80910;SDS011;70359;51.420;7.032;2024-03-23T07:38:44;5.4;;;4.5;;
80910;SDS011;70359;51.420;7.032;2024-03-23T07:41:10;5.9;;;4.8;;
80910;SDS011;70359;51.420;7.032;2024-03-23T07:43:33;5.9;;;4.8;;
80910;SDS011;70359;51.420;7.032;2024-03-23T07:45:58;4.8;;;3.7;;
80910;SDS011;70359;51.420;7.032;2024-03-23T07:48:24;4.8;;;3.7;;
80910;SDS011;70359;51.420;7.032;2024-03-23T07:50:55;5.4;;;4;;
80910;SDS011;70359;51.420;7.032;2024-03-23T07:53:13;5.4;;;4;;
80910;SDS011;70359;51.420;7.032;2024-03-23T07:55:38;5.7;;;4.1;;
80910;SDS011;70359;51.420;7.032;2024-03-23T07:58:04;5.7;;;4.1;;
80910;SDS011;70359;51.420;7.032;2024-03-23T08:00:28;5.8;;;4.2;;
80910;SDS011;70359;51.420;7.032;2024-03-23T08:02:58;5.8;;;4.2;;
80910;SDS011;70359;51.420;7.032;2024-03-23T08:05:18;6.1;;;3.7;;
80910;SDS011;70359;51.420;7.032;2024-03-23T08:07:43;6.1;;;3.7;;
80910;SDS011;70359;51.420;7.032;2024-03-23T08:10:09;5.2;;;4.1;;
80910;SDS011;70359;51.420;7.032;2024-03-23T08:12:33;5.2;;;4.1;;
80910;SDS011;70359;51.420;7.032;2024-03-23T08:14:59;9;;;3.7;;
80910;SDS011;70359;51.420;7.032;2024-03-23T08:17:23;9;;;3.7;;
80910;SDS011;70359;51.420;7.032;2024-03-23T08:19:52;9;;;3.7;;
80910;SDS011;70359;51.420;7.032;2024-03-23T08:22:13;6.3;;;4;;
80910;SDS011;70359;51.420;7.032;2024-03-23T08:24:42;6.3;;;4;;
80910;SDS011;70359;51.420;7.032;2024-03-23T08:27:04;6.2;;;3.8;;
80910;SDS011;70359;51.420;7.032;2024-03-23T08:29:28;6.2;;;3.8;;
80910;SDS011;70359;51.420;7.032;2024-03-23T08:31:53;9;;;3.3;;
80910;SDS011;70359;51.420;7.032;2024-03-23T08:34:19;9;;;3.3;;
80910;SDS011;70359;51.420;7.032;2024-03-23T08:36:47;4.6;;;2.9;;
80910;SDS011;70359;51.420;7.032;2024-03-23T08:39:13;4.6;;;2.9;;
80910;SDS011;70359;51.420;7.032;2024-03-23T08:41:33;4.7;;;3.2;;
80910;SDS011;70359;51.420;7.032;2024-03-23T08:43:58;4.7;;;3.2;;
80910;SDS011;70359;51.420;7.032;2024-03-23T08:46:23;4;;;2.5;;
80910;SDS011;70359;51.420;7.032;2024-03-23T08:48:48;4;;;2.5;;
80910;SDS011;70359;51.420;7.032;2024-03-23T08:51:14;6.4;;;2.8;;
80910;SDS011;70359;51.420;7.032;2024-03-23T08:53:39;6.4;;;2.8;;
80910;SDS011;70359;51.420;7.032;2024-03-23T08:56:09;3.7;;;2.5;;
80910;SDS011;70359;51.420;7.032;2024-03-23T08:58:30;3.7;;;2.5;;
80910;SDS011;70359;51.420;7.032;2024-03-23T09:00:55;4.2;;;2.6;;
80910;SDS011;70359;51.420;7.032;2024-03-23T09:03:19;4.2;;;2.6;;
80910;SDS011;70359;51.420;7.032;2024-03-23T09:05:44;3.6;;;2.3;;
80910;SDS011;70359;51.420;7.032;2024-03-23T09:08:13;3.6;;;2.3;;
80910;SDS011;70359;51.420;7.032;2024-03-23T09:10:35;2.8;;;2;;
80910;SDS011;70359;51.420;7.032;2024-03-23T09:12:59;2.8;;;2;;
80910;SDS011;70359;51.420;7.032;2024-03-23T09:15:24;1.6;;;1.3;;
80910;SDS011;70359;51.420;7.032;2024-03-23T09:17:49;1.6;;;1.3;;
80910;SDS011;70359;51.420;7.032;2024-03-23T09:20:14;1.3;;;1.2;;
80910;SDS011;70359;51.420;7.032;2024-03-23T09:22:39;1.3;;;1.2;;
80910;SDS011;70359;51.420;7.032;2024-03-23T09:25:04;3.2;;;1.5;;
80910;SDS011;70359;51.420;7.032;2024-03-23T09:27:29;3.2;;;1.5;;
80910;SDS011;70359;51.420;7.032;2024-03-23T09:29:54;3.2;;;1.5;;
80910;SDS011;70359;51.420;7.032;2024-03-23T09:32:19;4.5;;;1.6;;
80910;SDS011;70359;51.420;7.032;2024-03-23T09:34:44;4.5;;;1.6;;
80910;SDS011;70359;51.420;7.032;2024-03-23T09:37:09;3.1;;;1.9;;
80910;SDS011;70359;51.420;7.032;2024-03-23T09:39:34;3.1;;;1.9;;
80910;SDS011;70359;51.420;7.032;2024-03-23T09:42:00;3.7;;;2.5;;
80910;SDS011;70359;51.420;7.032;2024-03-23T09:44:24;3.7;;;2.5;;
80910;SDS011;70359;51.420;7.032;2024-03-23T09:46:49;5.7;;;2.4;;
80910;SDS011;70359;51.420;7.032;2024-03-23T09:49:18;5.7;;;2.4;;
80910;SDS011;70359;51.420;7.032;2024-03-23T09:51:39;3.6;;;2.1;;
80910;SDS011;70359;51.420;7.032;2024-03-23T09:54:04;3.6;;;2.1;;
80910;SDS011;70359;51.420;7.032;2024-03-23T09:56:29;2.7;;;1.9;;
80910;SDS011;70359;51.420;7.032;2024-03-23T09:58:59;2.7;;;1.9;;
80910;SDS011;70359;51.420;7.032;2024-03-23T10:01:19;2;;;1.6;;
80910;SDS011;70359;51.420;7.032;2024-03-23T10:03:47;2;;;1.6;;
80910;SDS011;70359;51.420;7.032;2024-03-23T10:06:09;3.1;;;2.3;;
80910;SDS011;70359;51.420;7.032;2024-03-23T10:08:38;3.1;;;2.3;;
80910;SDS011;70359;51.420;7.032;2024-03-23T10:11:16;3.2;;;2;;
80910;SDS011;70359;51.420;7.032;2024-03-23T10:13:30;3.2;;;2;;
80910;SDS011;70359;51.420;7.032;2024-03-23T10:15:54;4.1;;;1.8;;
80910;SDS011;70359;51.420;7.032;2024-03-23T10:18:18;4.1;;;1.8;;
80910;SDS011;70359;51.420;7.032;2024-03-23T10:20:39;3;;;1.5;;
80910;SDS011;70359;51.420;7.032;2024-03-23T10:23:04;3;;;1.5;;
80910;SDS011;70359;51.420;7.032;2024-03-23T10:25:29;6.6;;;1.9;;
80910;SDS011;70359;51.420;7.032;2024-03-23T10:28:05;6.6;;;1.9;;
80910;SDS011;70359;51.420;7.032;2024-03-23T10:30:25;2.6;;;1.4;;
80910;SDS011;70359;51.420;7.032;2024-03-23T10:32:48;2.6;;;1.4;;
80910;SDS011;70359;51.420;7.032;2024-03-23T10:35:19;3.9;;;1.4;;
80910;SDS011;70359;51.420;7.032;2024-03-23T10:37:34;3.9;;;1.4;;
80910;SDS011;70359;51.420;7.032;2024-03-23T10:40:00;2.3;;;1.3;;
80910;SDS011;70359;51.420;7.032;2024-03-23T10:42:24;2.3;;;1.3;;
80910;SDS011;70359;51.420;7.032;2024-03-23T10:44:49;2.3;;;1.3;;
80910;SDS011;70359;51.420;7.032;2024-03-23T10:47:14;2.8;;;1.4;;
80910;SDS011;70359;51.420;7.032;2024-03-23T10:49:39;2.8;;;1.4;;
80910;SDS011;70359;51.420;7.032;2024-03-23T10:52:05;3.9;;;1.8;;
80910;SDS011;70359;51.420;7.032;2024-03-23T10:54:30;3.9;;;1.8;;
80910;SDS011;70359;51.420;7.032;2024-03-23T10:56:56;1.6;;;0.9;;
80910;SDS011;70359;51.420;7.032;2024-03-23T10:59:23;1.6;;;0.9;;
80910;SDS011;70359;51.420;7.032;2024-03-23T11:02:01;0.7;;;0.5;;
80910;SDS011;70359;51.420;7.032;2024-03-23T11:04:13;0.7;;;0.5;;
80910;SDS011;70359;51.420;7.032;2024-03-23T11:06:38;2.2;;;0.7;;
80910;SDS011;70359;51.420;7.032;2024-03-23T11:09:03;2.2;;;0.7;;
80910;SDS011;70359;51.420;7.032;2024-03-23T11:11:24;0.5;;;0.4;;
80910;SDS011;70359;51.420;7.032;2024-03-23T11:13:49;0.5;;;0.4;;
80910;SDS011;70359;51.420;7.032;2024-03-23T11:16:21;0.6;;;0.4;;
80910;SDS011;70359;51.420;7.032;2024-03-23T11:18:39;0.6;;;0.4;;
80910;SDS011;70359;51.420;7.032;2024-03-23T11:21:04;1.9;;;0.8;;
80910;SDS011;70359;51.420;7.032;2024-03-23T11:23:30;1.9;;;0.8;;
80910;SDS011;70359;51.420;7.032;2024-03-23T11:25:54;2.3;;;0.9;;
80910;SDS011;70359;51.420;7.032;2024-03-23T11:28:19;2.3;;;0.9;;
80910;SDS011;70359;51.420;7.032;2024-03-23T11:30:44;1.6;;;0.9;;
80910;SDS011;70359;51.420;7.032;2024-03-23T11:33:09;1.6;;;0.9;;
80910;SDS011;70359;51.420;7.032;2024-03-23T11:35:35;1.2;;;1;;
80910;SDS011;70359;51.420;7.032;2024-03-23T11:38:06;1.2;;;1;;
80910;SDS011;70359;51.420;7.032;2024-03-23T11:40:24;13.1;;;1.8;;
80910;SDS011;70359;51.420;7.032;2024-03-23T11:42:55;13.1;;;1.8;;
80910;SDS011;70359;51.420;7.032;2024-03-23T11:45:14;1.2;;;1.1;;
80910;SDS011;70359;51.420;7.032;2024-03-23T11:47:39;1.2;;;1.1;;
80910;SDS011;70359;51.420;7.032;2024-03-23T11:50:04;2;;;1.4;;
80910;SDS011;70359;51.420;7.032;2024-03-23T11:52:33;2;;;1.4;;
80910;SDS011;70359;51.420;7.032;2024-03-23T11:55:07;2;;;1.4;;
80910;SDS011;70359;51.420;7.032;2024-03-23T11:57:19;1.7;;;1.2;;
80910;SDS011;70359;51.420;7.032;2024-03-23T11:59:44;1.7;;;1.2;;
80910;SDS011;70359;51.420;7.032;2024-03-23T12:02:11;3.6;;;1.5;;
80910;SDS011;70359;51.420;7.032;2024-03-23T12:04:34;3.6;;;1.5;;
80910;SDS011;70359;51.420;7.032;2024-03-23T12:07:15;1.8;;;1.3;;
80910;SDS011;70359;51.420;7.032;2024-03-23T12:09:24;1.8;;;1.3;;
80910;SDS011;70359;51.420;7.032;2024-03-23T12:11:49;1.2;;;1.1;;
80910;SDS011;70359;51.420;7.032;2024-03-23T12:14:14;1.2;;;1.1;;
80910;SDS011;70359;51.420;7.032;2024-03-23T12:16:39;1.5;;;1.1;;
80910;SDS011;70359;51.420;7.032;2024-03-23T12:19:12;1.5;;;1.1;;
80910;SDS011;70359;51.420;7.032;2024-03-23T12:21:29;1.3;;;0.9;;
80910;SDS011;70359;51.420;7.032;2024-03-23T12:23:58;1.3;;;0.9;;
80910;SDS011;70359;51.420;7.032;2024-03-23T12:26:19;0.8;;;0.6;;
80910;SDS011;70359;51.420;7.032;2024-03-23T12:28:48;0.8;;;0.6;;
80910;SDS011;70359;51.420;7.032;2024-03-23T12:31:10;0.6;;;0.6;;
80910;SDS011;70359;51.420;7.032;2024-03-23T12:33:38;0.6;;;0.6;;
80910;SDS011;70359;51.420;7.032;2024-03-23T12:35:59;0.7;;;0.5;;
80910;SDS011;70359;51.420;7.032;2024-03-23T12:38:24;0.7;;;0.5;;
80910;SDS011;70359;51.420;7.032;2024-03-23T12:40:50;1.1;;;0.7;;
80910;SDS011;70359;51.420;7.032;2024-03-23T12:43:14;1.1;;;0.7;;
80910;SDS011;70359;51.420;7.032;2024-03-23T12:45:43;1.5;;;1;;
80910;SDS011;70359;51.420;7.032;2024-03-23T12:48:04;1.5;;;1;;
80910;SDS011;70359;51.420;7.032;2024-03-23T12:50:33;3.8;;;1.2;;
80910;SDS011;70359;51.420;7.032;2024-03-23T12:52:58;3.8;;;1.2;;
80910;SDS011;70359;51.420;7.032;2024-03-23T12:55:19;1.1;;;1;;
80910;SDS011;70359;51.420;7.032;2024-03-23T12:57:44;1.1;;;1;;
80910;SDS011;70359;51.420;7.032;2024-03-23T13:00:10;1.2;;;1.1;;
80910;SDS011;70359;51.420;7.032;2024-03-23T13:02:34;1.2;;;1.1;;
80910;SDS011;70359;51.420;7.032;2024-03-23T13:05:03;1.2;;;1.1;;
80910;SDS011;70359;51.420;7.032;2024-03-23T13:07:24;1.4;;;1.1;;
80910;SDS011;70359;51.420;7.032;2024-03-23T13:09:49;1.4;;;1.1;;
80910;SDS011;70359;51.420;7.032;2024-03-23T13:12:18;1.7;;;1.1;;
80910;SDS011;70359;51.420;7.032;2024-03-23T13:14:39;1.7;;;1.1;;
80910;SDS011;70359;51.420;7.032;2024-03-23T13:17:08;1.5;;;1.1;;
80910;SDS011;70359;51.420;7.032;2024-03-23T13:19:29;1.5;;;1.1;;
80910;SDS011;70359;51.420;7.032;2024-03-23T13:21:54;0.9;;;0.7;;
80910;SDS011;70359;51.420;7.032;2024-03-23T13:24:25;0.9;;;0.7;;
80910;SDS011;70359;51.420;7.032;2024-03-23T13:26:44;0.5;;;0.5;;
80910;SDS011;70359;51.420;7.032;2024-03-23T13:29:09;0.5;;;0.5;;
80910;SDS011;70359;51.420;7.032;2024-03-23T13:31:34;1.4;;;1.2;;
80910;SDS011;70359;51.420;7.032;2024-03-23T13:33:59;1.4;;;1.2;;
80910;SDS011;70359;51.420;7.032;2024-03-23T13:36:24;1.4;;;1.2;;
80910;SDS011;70359;51.420;7.032;2024-03-23T13:38:49;1.4;;;1.2;;
80910;SDS011;70359;51.420;7.032;2024-03-23T13:41:14;1.2;;;1.1;;
80910;SDS011;70359;51.420;7.032;2024-03-23T13:43:39;1.2;;;1.1;;
80910;SDS011;70359;51.420;7.032;2024-03-23T13:46:04;1.5;;;1;;
80910;SDS011;70359;51.420;7.032;2024-03-23T13:48:33;1.5;;;1;;
80910;SDS011;70359;51.420;7.032;2024-03-23T13:51:01;1.1;;;0.9;;
80910;SDS011;70359;51.420;7.032;2024-03-23T13:53:19;1.1;;;0.9;;
80910;SDS011;70359;51.420;7.032;2024-03-23T13:55:49;1;;;0.7;;
80910;SDS011;70359;51.420;7.032;2024-03-23T13:58:09;1;;;0.7;;
80910;SDS011;70359;51.420;7.032;2024-03-23T14:00:38;1.2;;;0.7;;
80910;SDS011;70359;51.420;7.032;2024-03-23T14:02:59;1.2;;;0.7;;
80910;SDS011;70359;51.420;7.032;2024-03-23T14:05:24;1.2;;;0.7;;
80910;SDS011;70359;51.420;7.032;2024-03-23T14:07:49;1.2;;;0.7;;
80910;SDS011;70359;51.420;7.032;2024-03-23T14:10:14;1.6;;;0.8;;
80910;SDS011;70359;51.420;7.032;2024-03-23T14:12:39;1.6;;;0.8;;
80910;SDS011;70359;51.420;7.032;2024-03-23T14:15:05;0.7;;;0.6;;
80910;SDS011;70359;51.420;7.032;2024-03-23T14:17:33;0.7;;;0.6;;
80910;SDS011;70359;51.420;7.032;2024-03-23T14:19:55;0.7;;;0.6;;
80910;SDS011;70359;51.420;7.032;2024-03-23T14:22:19;1;;;0.8;;
80910;SDS011;70359;51.420;7.032;2024-03-23T14:24:44;1;;;0.8;;
80910;SDS011;70359;51.420;7.032;2024-03-23T14:27:13;0.9;;;0.6;;
80910;SDS011;70359;51.420;7.032;2024-03-23T14:29:34;0.9;;;0.6;;
80910;SDS011;70359;51.420;7.032;2024-03-23T14:31:59;4;;;1.1;;
80910;SDS011;70359;51.420;7.032;2024-03-23T14:34:25;4;;;1.1;;
80910;SDS011;70359;51.420;7.032;2024-03-23T14:36:49;1;;;0.7;;
80910;SDS011;70359;51.420;7.032;2024-03-23T14:39:14;1;;;0.7;;
80910;SDS011;70359;51.420;7.032;2024-03-23T14:41:39;0.6;;;0.6;;
80910;SDS011;70359;51.420;7.032;2024-03-23T14:44:04;0.6;;;0.6;;
80910;SDS011;70359;51.420;7.032;2024-03-23T14:46:29;1.6;;;0.8;;
80910;SDS011;70359;51.420;7.032;2024-03-23T14:48:54;1.6;;;0.8;;
80910;SDS011;70359;51.420;7.032;2024-03-23T14:51:23;1.3;;;0.7;;
80910;SDS011;70359;51.420;7.032;2024-03-23T14:53:45;1.3;;;0.7;;
80910;SDS011;70359;51.420;7.032;2024-03-23T14:56:09;1.4;;;0.9;;
80910;SDS011;70359;51.420;7.032;2024-03-23T14:58:34;1.4;;;0.9;;
80910;SDS011;70359;51.420;7.032;2024-03-23T15:01:04;1.3;;;0.9;;
80910;SDS011;70359;51.420;7.032;2024-03-23T15:03:24;1.3;;;0.9;;
80910;SDS011;70359;51.420;7.032;2024-03-23T15:05:56;1.9;;;1.3;;
80910;SDS011;70359;51.420;7.032;2024-03-23T15:08:14;1.9;;;1.3;;
80910;SDS011;70359;51.420;7.032;2024-03-23T15:10:39;1.8;;;0.9;;
80910;SDS011;70359;51.420;7.032;2024-03-23T15:13:04;1.8;;;0.9;;
80910;SDS011;70359;51.420;7.032;2024-03-23T15:15:29;3.3;;;1.1;;
80910;SDS011;70359;51.420;7.032;2024-03-23T15:17:54;3.3;;;1.1;;
80910;SDS011;70359;51.420;7.032;2024-03-23T15:20:19;1.2;;;0.8;;
80910;SDS011;70359;51.420;7.032;2024-03-23T15:22:44;1.2;;;0.8;;
80910;SDS011;70359;51.420;7.032;2024-03-23T15:25:09;1.6;;;0.9;;
80910;SDS011;70359;51.420;7.032;2024-03-23T15:27:34;1.6;;;0.9;;
80910;SDS011;70359;51.420;7.032;2024-03-23T15:29:59;1.6;;;0.9;;
80910;SDS011;70359;51.420;7.032;2024-03-23T15:32:24;1.5;;;1.1;;
80910;SDS011;70359;51.420;7.032;2024-03-23T15:34:49;1.5;;;1.1;;
80910;SDS011;70359;51.420;7.032;2024-03-23T15:37:14;2.6;;;1.1;;
80910;SDS011;70359;51.420;7.032;2024-03-23T15:39:39;2.6;;;1.1;;
80910;SDS011;70359;51.420;7.032;2024-03-23T15:42:05;1.2;;;0.9;;
80910;SDS011;70359;51.420;7.032;2024-03-23T15:44:29;1.2;;;0.9;;
80910;SDS011;70359;51.420;7.032;2024-03-23T15:46:54;1;;;0.9;;
80910;SDS011;70359;51.420;7.032;2024-03-23T15:49:23;1;;;0.9;;
80910;SDS011;70359;51.420;7.032;2024-03-23T15:51:44;2.1;;;1;;
80910;SDS011;70359;51.420;7.032;2024-03-23T15:54:09;2.1;;;1;;
80910;SDS011;70359;51.420;7.032;2024-03-23T15:56:34;1;;;0.8;;
80910;SDS011;70359;51.420;7.032;2024-03-23T15:59:03;1;;;0.8;;